createdAt,value
2023-01-15T00:00:02.657Z,8.70
2023-01-15T00:01:02.829Z,8.70
2023-01-15T00:02:02.658Z,8.70
2023-01-15T00:03:02.734Z,8.70
2023-01-15T00:04:02.778Z,8.70
2023-01-15T00:05:02.864Z,8.70
2023-01-15T00:06:02.858Z,8.70
2023-01-15T00:07:02.782Z,8.70
2023-01-15T00:08:02.833Z,8.70
2023-01-15T00:09:02.769Z,8.70
2023-01-15T00:10:02.804Z,8.70
2023-01-15T00:11:02.855Z,8.70
2023-01-15T00:12:02.741Z,8.70
2023-01-15T00:13:02.725Z,8.70
2023-01-15T00:14:02.753Z,8.70
2023-01-15T00:15:02.791Z,8.70
2023-01-15T00:16:03.026Z,8.80
2023-01-15T00:17:02.924Z,8.70
2023-01-15T00:18:02.909Z,8.80
2023-01-15T00:19:02.888Z,8.70
2023-01-15T00:20:02.895Z,8.80
2023-01-15T00:21:03.034Z,8.80
2023-01-15T00:22:02.951Z,8.80
2023-01-15T00:23:02.838Z,8.80
2023-01-15T00:24:02.818Z,8.80
2023-01-15T00:25:02.816Z,8.80
2023-01-15T00:26:02.641Z,8.80
2023-01-15T00:27:02.720Z,8.80
2023-01-15T00:28:02.795Z,8.80
2023-01-15T00:29:02.652Z,8.80
2023-01-15T00:30:02.582Z,8.80
2023-01-15T00:31:03.628Z,8.80
2023-01-15T00:32:03.571Z,8.80
2023-01-15T00:33:03.511Z,8.80
2023-01-15T00:34:03.352Z,8.80
2023-01-15T00:35:03.474Z,8.80
2023-01-15T00:36:03.360Z,8.90
2023-01-15T00:37:03.367Z,8.80
2023-01-15T00:38:03.280Z,8.80
2023-01-15T00:39:03.194Z,8.80
2023-01-15T00:40:03.249Z,8.90
2023-01-15T00:41:03.112Z,8.90
2023-01-15T00:42:03.032Z,8.90
2023-01-15T00:43:02.953Z,8.90
2023-01-15T00:44:03.009Z,8.90
2023-01-15T00:45:03.015Z,8.90
2023-01-15T00:46:02.913Z,8.90
2023-01-15T00:47:02.936Z,8.90
2023-01-15T00:48:03.204Z,8.90
2023-01-15T00:49:03.123Z,8.90
2023-01-15T00:50:03.072Z,8.90
2023-01-15T00:51:03.277Z,8.90
2023-01-15T00:52:03.216Z,9.00
2023-01-15T00:53:03.099Z,8.90
2023-01-15T00:54:03.126Z,8.90
2023-01-15T00:55:03.027Z,8.90
2023-01-15T00:56:02.993Z,9.00
2023-01-15T00:57:02.858Z,8.90
2023-01-15T00:58:02.889Z,9.00
2023-01-15T00:59:02.775Z,8.90
2023-01-15T01:00:02.729Z,8.90
2023-01-15T01:01:02.735Z,8.90
2023-01-15T01:02:03.738Z,9.00
2023-01-15T01:03:03.600Z,8.90
2023-01-15T01:04:03.522Z,9.00
2023-01-15T01:05:03.428Z,9.00
2023-01-15T01:06:03.367Z,9.00
2023-01-15T01:07:03.282Z,9.00
2023-01-15T01:08:03.352Z,9.00
2023-01-15T01:09:03.327Z,9.00
2023-01-15T01:10:03.673Z,9.00
2023-01-15T01:11:03.557Z,9.00
2023-01-15T01:12:03.349Z,9.00
2023-01-15T01:13:03.329Z,9.00
2023-01-15T01:14:03.235Z,9.00
2023-01-15T01:15:03.264Z,9.00
2023-01-15T01:16:03.227Z,9.00
2023-01-15T01:17:03.220Z,9.00
2023-01-15T01:18:03.052Z,9.00
2023-01-15T01:19:03.357Z,9.00
2023-01-15T01:20:03.301Z,9.00
2023-01-15T01:21:03.445Z,9.00
2023-01-15T01:22:08.738Z,9.00
2023-01-15T01:23:03.426Z,9.00
2023-01-15T01:24:03.318Z,9.00
2023-01-15T01:25:03.023Z,9.00
2023-01-15T01:26:03.068Z,9.00
2023-01-15T01:27:02.943Z,9.10
2023-01-15T01:28:02.901Z,9.10
2023-01-15T01:29:02.777Z,9.10
2023-01-15T01:30:02.817Z,9.10
2023-01-15T01:31:02.800Z,9.10
2023-01-15T01:32:02.731Z,9.10
2023-01-15T01:33:02.621Z,9.10
2023-01-15T01:34:02.653Z,9.20
2023-01-15T01:35:02.672Z,9.20
2023-01-15T01:36:03.637Z,9.20
2023-01-15T01:37:03.588Z,9.20
2023-01-15T01:38:03.410Z,9.20
2023-01-15T01:39:03.596Z,9.20
2023-01-15T01:40:03.514Z,9.20
2023-01-15T01:41:03.581Z,9.30
2023-01-15T01:42:03.461Z,9.30
2023-01-15T01:43:03.415Z,9.30
2023-01-15T01:44:03.396Z,9.30
2023-01-15T01:45:03.346Z,9.30
2023-01-15T01:46:03.342Z,9.30
2023-01-15T01:47:03.255Z,9.30
2023-01-15T01:48:03.163Z,9.30
2023-01-15T01:49:03.047Z,9.30
2023-01-15T01:50:02.997Z,9.30
2023-01-15T01:51:02.893Z,9.30
2023-01-15T01:52:02.929Z,9.40
2023-01-15T01:53:02.781Z,9.40
2023-01-15T01:54:02.793Z,9.40
2023-01-15T01:55:02.721Z,9.40
2023-01-15T01:56:02.830Z,9.40
2023-01-15T01:57:02.686Z,9.40
2023-01-15T01:58:02.743Z,9.40
2023-01-15T01:59:02.745Z,9.40
2023-01-15T02:00:02.782Z,9.40
2023-01-15T02:01:02.742Z,9.50
2023-01-15T02:02:02.728Z,9.50
2023-01-15T02:03:03.563Z,9.50
2023-01-15T02:04:03.448Z,9.50
2023-01-15T02:05:03.440Z,9.50
2023-01-15T02:06:03.345Z,9.50
2023-01-15T02:07:03.391Z,9.50
2023-01-15T02:08:03.282Z,9.50
2023-01-15T02:09:03.290Z,9.60
2023-01-15T02:10:03.353Z,9.60
2023-01-15T02:11:03.217Z,9.60
2023-01-15T02:12:03.193Z,9.60
2023-01-15T02:13:03.092Z,9.60
2023-01-15T02:14:02.988Z,9.60
2023-01-15T02:15:02.979Z,9.60
2023-01-15T02:16:02.936Z,9.60
2023-01-15T02:17:02.896Z,9.60
2023-01-15T02:18:02.802Z,9.60
2023-01-15T02:19:02.739Z,9.60
2023-01-15T02:20:02.694Z,9.60
2023-01-15T02:21:02.820Z,9.60
2023-01-15T02:22:02.759Z,9.60
2023-01-15T02:23:02.702Z,9.70
2023-01-15T02:24:03.348Z,9.70
2023-01-15T02:25:02.745Z,9.70
2023-01-15T02:26:02.818Z,9.70
2023-01-15T02:27:02.731Z,9.70
2023-01-15T02:28:03.591Z,9.70
2023-01-15T02:29:03.522Z,9.70
2023-01-15T02:30:03.415Z,9.70
2023-01-15T02:31:03.377Z,9.70
2023-01-15T02:32:03.354Z,9.70
2023-01-15T02:33:03.239Z,9.70
2023-01-15T02:34:03.186Z,9.70
2023-01-15T02:35:03.161Z,9.70
2023-01-15T02:36:02.995Z,9.70
2023-01-15T02:37:02.863Z,9.70
2023-01-15T02:38:02.961Z,9.70
2023-01-15T02:39:02.998Z,9.70
2023-01-15T02:40:02.907Z,9.70
2023-01-15T02:41:02.956Z,9.70
2023-01-15T02:42:02.990Z,9.70
2023-01-15T02:43:02.993Z,9.70
2023-01-15T02:44:02.940Z,9.70
2023-01-15T02:45:02.957Z,9.70
2023-01-15T02:46:02.999Z,9.70
2023-01-15T02:47:02.857Z,9.70
2023-01-15T02:48:02.874Z,9.70
2023-01-15T02:49:02.896Z,9.70
2023-01-15T02:50:02.933Z,9.70
2023-01-15T02:51:02.763Z,9.70
2023-01-15T02:52:02.773Z,9.70
2023-01-15T02:53:02.669Z,9.70
2023-01-15T02:54:02.696Z,9.70
2023-01-15T02:55:02.633Z,9.70
2023-01-15T02:56:02.581Z,9.70
2023-01-15T02:57:03.545Z,9.70
2023-01-15T02:58:03.560Z,9.70
2023-01-15T02:59:02.610Z,9.70
2023-01-15T03:00:02.620Z,9.70
2023-01-15T03:01:03.709Z,9.70
2023-01-15T03:02:03.627Z,9.70
2023-01-15T03:03:03.506Z,9.70
2023-01-15T03:04:03.482Z,9.70
2023-01-15T03:05:03.504Z,9.70
2023-01-15T03:06:03.366Z,9.70
2023-01-15T03:07:03.352Z,9.70
2023-01-15T03:08:03.250Z,9.70
2023-01-15T03:09:02.990Z,9.70
2023-01-15T03:10:03.050Z,9.70
2023-01-15T03:11:02.875Z,9.70
2023-01-15T03:12:02.997Z,9.70
2023-01-15T03:13:03.009Z,9.70
2023-01-15T03:14:03.050Z,9.70
2023-01-15T03:15:03.112Z,9.70
2023-01-15T03:16:02.941Z,9.70
2023-01-15T03:17:02.957Z,9.70
2023-01-15T03:18:02.946Z,9.70
2023-01-15T03:19:03.038Z,9.70
2023-01-15T03:20:02.993Z,9.70
2023-01-15T03:21:02.910Z,9.70
2023-01-15T03:22:02.840Z,9.70
2023-01-15T03:23:02.810Z,9.70
2023-01-15T03:24:02.835Z,9.70
2023-01-15T03:25:02.717Z,9.70
2023-01-15T03:26:02.770Z,9.70
2023-01-15T03:27:02.633Z,9.70
2023-01-15T03:28:02.648Z,9.70
2023-01-15T03:29:02.734Z,9.70
2023-01-15T03:30:02.602Z,9.70
2023-01-15T03:31:03.545Z,9.70
2023-01-15T03:32:03.425Z,9.70
2023-01-15T03:33:03.396Z,9.70
2023-01-15T03:34:03.364Z,9.70
2023-01-15T03:35:03.304Z,9.70
2023-01-15T03:36:03.278Z,9.70
2023-01-15T03:37:03.266Z,9.70
2023-01-15T03:38:03.165Z,9.70
2023-01-15T03:39:03.204Z,9.70
2023-01-15T03:40:03.120Z,9.70
2023-01-15T03:41:03.411Z,9.70
2023-01-15T03:42:03.332Z,9.70
2023-01-15T03:43:03.259Z,9.70
2023-01-15T03:44:03.183Z,9.70
2023-01-15T03:45:03.078Z,9.70
2023-01-15T03:46:03.170Z,9.70
2023-01-15T03:47:03.107Z,9.70
2023-01-15T03:48:02.957Z,9.70
2023-01-15T03:49:02.911Z,9.70
2023-01-15T03:50:02.953Z,9.70
2023-01-15T03:51:02.991Z,9.70
2023-01-15T03:52:03.004Z,9.70
2023-01-15T03:53:02.957Z,9.70
2023-01-15T03:54:03.066Z,9.70
2023-01-15T03:55:02.865Z,9.70
2023-01-15T03:56:02.776Z,9.70
2023-01-15T03:57:02.753Z,9.70
2023-01-15T03:58:02.666Z,9.70
2023-01-15T03:59:02.682Z,9.70
2023-01-15T04:00:03.610Z,9.70
2023-01-15T04:01:03.669Z,9.70
2023-01-15T04:02:03.588Z,9.70
2023-01-15T04:03:03.385Z,9.70
2023-01-15T04:04:03.538Z,9.70
2023-01-15T04:05:03.464Z,9.70
2023-01-15T04:06:03.411Z,9.70
2023-01-15T04:07:03.415Z,9.70
2023-01-15T04:08:03.409Z,9.80
2023-01-15T04:09:03.267Z,9.70
2023-01-15T04:10:02.742Z,9.70
2023-01-15T04:11:02.649Z,9.80
2023-01-15T04:12:03.639Z,9.80
2023-01-15T04:13:03.501Z,9.70
2023-01-15T04:14:03.519Z,9.80
2023-01-15T04:15:03.562Z,9.80
2023-01-15T04:16:03.665Z,9.80
2023-01-15T04:17:03.542Z,9.80
2023-01-15T04:18:03.382Z,9.80
2023-01-15T04:19:03.405Z,9.80
2023-01-15T04:20:03.367Z,9.80
2023-01-15T04:21:05.421Z,9.80
2023-01-15T04:22:03.220Z,9.80
2023-01-15T04:23:03.140Z,9.80
2023-01-15T04:24:03.095Z,9.80
2023-01-15T04:25:03.055Z,9.80
2023-01-15T04:26:02.924Z,9.70
2023-01-15T04:27:02.909Z,9.70
2023-01-15T04:28:02.941Z,9.70
2023-01-15T04:29:02.918Z,9.70
2023-01-15T04:30:02.785Z,9.70
2023-01-15T04:31:02.769Z,9.70
2023-01-15T04:32:02.635Z,9.70
2023-01-15T04:33:03.617Z,9.70
2023-01-15T04:34:03.522Z,9.70
2023-01-15T04:35:03.476Z,9.70
2023-01-15T04:36:03.406Z,9.60
2023-01-15T04:37:03.358Z,9.50
2023-01-15T04:38:03.332Z,9.40
2023-01-15T04:39:03.306Z,9.40
2023-01-15T04:40:03.340Z,9.30
2023-01-15T04:41:03.372Z,9.20
2023-01-15T04:42:03.335Z,9.20
2023-01-15T04:43:03.247Z,9.10
2023-01-15T04:44:03.245Z,9.00
2023-01-15T04:45:03.216Z,9.00
2023-01-15T04:46:03.243Z,8.90
2023-01-15T04:47:03.096Z,8.90
2023-01-15T04:48:02.976Z,8.80
2023-01-15T04:49:02.868Z,8.80
2023-01-15T04:50:02.861Z,8.70
2023-01-15T04:51:02.766Z,8.70
2023-01-15T04:52:02.717Z,8.70
2023-01-15T04:53:02.721Z,8.70
2023-01-15T04:54:02.747Z,8.60
2023-01-15T04:55:02.574Z,8.60
2023-01-15T04:56:02.654Z,8.60
2023-01-15T04:57:03.633Z,8.60
2023-01-15T04:58:03.486Z,8.60
2023-01-15T04:59:03.477Z,8.50
2023-01-15T05:00:03.435Z,8.50
2023-01-15T05:01:03.478Z,8.50
2023-01-15T05:02:06.210Z,8.50
2023-01-15T05:03:03.213Z,8.50
2023-01-15T05:04:03.222Z,8.50
2023-01-15T05:05:03.121Z,8.50
2023-01-15T05:06:03.140Z,8.50
2023-01-15T05:07:03.096Z,8.40
2023-01-15T05:08:03.018Z,8.40
2023-01-15T05:09:03.034Z,8.40
2023-01-15T05:10:02.942Z,8.40
2023-01-15T05:11:02.861Z,8.40
2023-01-15T05:12:02.971Z,8.40
2023-01-15T05:13:02.869Z,8.40
2023-01-15T05:14:02.900Z,8.40
2023-01-15T05:15:02.919Z,8.40
2023-01-15T05:16:02.976Z,8.30
2023-01-15T05:17:02.954Z,8.30
2023-01-15T05:18:02.805Z,8.30
2023-01-15T05:19:02.795Z,8.30
2023-01-15T05:20:02.760Z,8.30
2023-01-15T05:21:02.750Z,8.30
2023-01-15T05:22:02.691Z,8.20
2023-01-15T05:23:02.641Z,8.20
2023-01-15T05:24:02.620Z,8.20
2023-01-15T05:25:02.989Z,8.20
2023-01-15T05:26:02.995Z,8.20
2023-01-15T05:27:02.918Z,8.20
2023-01-15T05:28:02.803Z,8.20
2023-01-15T05:29:02.699Z,8.20
2023-01-15T05:30:02.673Z,8.20
2023-01-15T05:31:02.675Z,8.20
2023-01-15T05:32:03.543Z,8.10
2023-01-15T05:33:03.451Z,8.10
2023-01-15T05:34:03.456Z,8.10
2023-01-15T05:35:03.386Z,8.10
2023-01-15T05:36:03.300Z,8.10
2023-01-15T05:37:03.295Z,8.10
2023-01-15T05:38:03.306Z,8.10
2023-01-15T05:39:03.321Z,8.10
2023-01-15T05:40:03.360Z,8.10
2023-01-15T05:41:03.382Z,8.10
2023-01-15T05:42:03.343Z,8.00
2023-01-15T05:43:03.240Z,8.00
2023-01-15T05:44:03.146Z,8.00
2023-01-15T05:45:03.081Z,8.00
2023-01-15T05:46:03.135Z,8.00
2023-01-15T05:47:03.331Z,8.00
2023-01-15T05:48:03.185Z,8.00
2023-01-15T05:49:03.061Z,8.00
2023-01-15T05:50:02.952Z,8.00
2023-01-15T05:51:03.006Z,8.00
2023-01-15T05:52:02.981Z,8.00
2023-01-15T05:53:03.001Z,8.00
2023-01-15T05:54:03.014Z,8.00
2023-01-15T05:55:02.910Z,7.90
2023-01-15T05:56:02.911Z,7.90
2023-01-15T05:57:02.852Z,7.90
2023-01-15T05:58:02.783Z,7.90
2023-01-15T05:59:02.819Z,7.90
2023-01-15T06:00:02.707Z,7.90
2023-01-15T06:01:02.684Z,7.90
2023-01-15T06:02:03.590Z,7.90
2023-01-15T06:03:03.608Z,7.80
2023-01-15T06:04:03.652Z,7.80
2023-01-15T06:05:03.548Z,7.80
2023-01-15T06:06:03.798Z,7.80
2023-01-15T06:07:03.469Z,7.80
2023-01-15T06:08:03.388Z,7.80
2023-01-15T06:09:03.416Z,7.80
2023-01-15T06:10:03.301Z,7.80
2023-01-15T06:11:03.366Z,7.70
2023-01-15T06:12:03.283Z,7.70
2023-01-15T06:13:03.205Z,7.70
2023-01-15T06:14:03.119Z,7.70
2023-01-15T06:15:03.147Z,7.60
2023-01-15T06:16:03.121Z,7.60
2023-01-15T06:17:03.141Z,7.60
2023-01-15T06:18:03.070Z,7.60
2023-01-15T06:19:02.995Z,7.50
2023-01-15T06:20:03.108Z,7.50
2023-01-15T06:21:03.171Z,7.50
2023-01-15T06:22:03.216Z,7.50
2023-01-15T06:23:03.135Z,7.50
2023-01-15T06:24:03.133Z,7.40
2023-01-15T06:25:03.143Z,7.40
2023-01-15T06:26:03.115Z,7.40
2023-01-15T06:27:03.109Z,7.40
2023-01-15T06:28:03.176Z,7.40
2023-01-15T06:29:03.098Z,7.30
2023-01-15T06:30:03.493Z,7.30
2023-01-15T06:31:03.443Z,7.30
2023-01-15T06:32:03.398Z,7.30
2023-01-15T06:33:03.276Z,7.30
2023-01-15T06:34:03.302Z,7.30
2023-01-15T06:35:03.137Z,7.30
2023-01-15T06:36:03.173Z,7.30
2023-01-15T06:37:03.054Z,7.30
2023-01-15T06:38:03.041Z,7.30
2023-01-15T06:39:05.141Z,7.30
2023-01-15T06:40:03.043Z,7.20
2023-01-15T06:41:03.117Z,7.20
2023-01-15T06:42:03.089Z,7.20
2023-01-15T06:43:02.989Z,7.20
2023-01-15T06:44:02.984Z,7.20
2023-01-15T06:45:02.981Z,7.20
2023-01-15T06:46:02.879Z,7.20
2023-01-15T06:47:02.793Z,7.20
2023-01-15T06:48:02.811Z,7.20
2023-01-15T06:49:02.739Z,7.20
2023-01-15T06:50:02.682Z,7.20
2023-01-15T06:51:02.722Z,7.20
2023-01-15T06:52:02.671Z,7.20
2023-01-15T06:53:02.679Z,7.20
2023-01-15T06:54:02.720Z,7.20
2023-01-15T06:55:02.802Z,7.20
2023-01-15T06:56:02.712Z,7.20
2023-01-15T06:57:02.619Z,7.20
2023-01-15T06:58:02.730Z,7.20
2023-01-15T06:59:02.630Z,7.10
2023-01-15T07:00:03.671Z,7.10
2023-01-15T07:01:03.721Z,7.10
2023-01-15T07:02:03.466Z,7.10
2023-01-15T07:03:03.404Z,7.10
2023-01-15T07:04:03.476Z,7.00
2023-01-15T07:05:03.731Z,7.00
2023-01-15T07:06:03.590Z,7.00
2023-01-15T07:07:03.507Z,7.00
2023-01-15T07:08:03.425Z,7.00
2023-01-15T07:09:03.471Z,6.90
2023-01-15T07:10:03.509Z,6.90
2023-01-15T07:11:03.515Z,6.90
2023-01-15T07:12:03.403Z,6.90
2023-01-15T07:13:03.407Z,6.90
2023-01-15T07:14:03.363Z,6.90
2023-01-15T07:15:02.806Z,6.80
2023-01-15T07:16:02.855Z,6.80
2023-01-15T07:17:02.794Z,6.80
2023-01-15T07:18:02.781Z,6.80
2023-01-15T07:19:02.742Z,6.80
2023-01-15T07:20:02.632Z,6.80
2023-01-15T07:21:03.603Z,6.80
2023-01-15T07:22:03.445Z,6.70
2023-01-15T07:23:03.496Z,6.70
2023-01-15T07:24:03.462Z,6.70
2023-01-15T07:25:03.350Z,6.70
2023-01-15T07:26:03.340Z,6.70
2023-01-15T07:27:03.296Z,6.60
2023-01-15T07:28:03.165Z,6.60
2023-01-15T07:29:03.199Z,6.60
2023-01-15T07:30:03.094Z,6.60
2023-01-15T07:31:03.241Z,6.60
2023-01-15T07:32:03.093Z,6.50
2023-01-15T07:33:03.018Z,6.50
2023-01-15T07:34:02.931Z,6.50
2023-01-15T07:35:02.895Z,6.50
2023-01-15T07:36:02.800Z,6.50
2023-01-15T07:37:02.826Z,6.50
2023-01-15T07:38:02.776Z,6.40
2023-01-15T07:39:02.656Z,6.40
2023-01-15T07:40:02.610Z,6.40
2023-01-15T07:41:02.611Z,6.40
2023-01-15T07:42:03.544Z,6.40
2023-01-15T07:43:02.575Z,6.40
2023-01-15T07:44:03.539Z,6.40
2023-01-15T07:45:03.609Z,6.40
2023-01-15T07:46:03.566Z,6.30
2023-01-15T07:47:03.432Z,6.30
2023-01-15T07:48:03.524Z,6.30
2023-01-15T07:49:03.518Z,6.30
2023-01-15T07:50:03.455Z,6.30
2023-01-15T07:51:03.390Z,6.20
2023-01-15T07:52:03.429Z,6.20
2023-01-15T07:53:03.319Z,6.20
2023-01-15T07:54:03.284Z,6.20
2023-01-15T07:55:03.284Z,6.20
2023-01-15T07:56:03.314Z,6.20
2023-01-15T07:57:03.142Z,6.20
2023-01-15T07:58:03.068Z,6.20
2023-01-15T07:59:03.015Z,6.20
2023-01-15T08:00:02.986Z,6.20
2023-01-15T08:01:02.958Z,6.20
2023-01-15T08:02:02.893Z,6.20
2023-01-15T08:03:02.845Z,6.10
2023-01-15T08:04:02.788Z,6.10
2023-01-15T08:05:02.662Z,6.10
2023-01-15T08:06:02.648Z,6.10
2023-01-15T08:07:03.530Z,6.10
2023-01-15T08:08:03.497Z,6.10
2023-01-15T08:09:03.427Z,6.10
2023-01-15T08:10:03.311Z,6.10
2023-01-15T08:11:03.318Z,6.10
2023-01-15T08:12:03.184Z,6.10
2023-01-15T08:13:03.189Z,6.10
2023-01-15T08:14:03.056Z,6.10
2023-01-15T08:15:03.056Z,6.10
2023-01-15T08:16:03.033Z,6.10
2023-01-15T08:17:02.938Z,6.10
2023-01-15T08:18:02.906Z,6.10
2023-01-15T08:19:02.893Z,6.10
2023-01-15T08:20:02.776Z,6.10
2023-01-15T08:21:02.742Z,6.10
2023-01-15T08:22:02.738Z,6.10
2023-01-15T08:23:02.713Z,6.10
2023-01-15T08:24:02.611Z,6.10
2023-01-15T08:25:03.506Z,6.10
2023-01-15T08:26:03.531Z,6.10
2023-01-15T08:27:03.538Z,6.10
2023-01-15T08:28:03.500Z,6.10
2023-01-15T08:29:03.530Z,6.10
2023-01-15T08:30:03.445Z,6.10
2023-01-15T08:31:03.551Z,6.10
2023-01-15T08:32:03.555Z,6.10
2023-01-15T08:33:03.551Z,6.10
2023-01-15T08:34:02.743Z,6.10
2023-01-15T08:35:02.627Z,6.10
2023-01-15T08:36:02.685Z,6.10
2023-01-15T08:37:02.626Z,6.10
2023-01-15T08:38:03.610Z,6.10
2023-01-15T08:39:02.885Z,6.10
2023-01-15T08:40:02.818Z,6.10
2023-01-15T08:41:02.848Z,6.10
2023-01-15T08:42:03.241Z,6.10
2023-01-15T08:43:03.119Z,6.10
2023-01-15T08:44:03.109Z,6.10
2023-01-15T08:45:02.985Z,6.10
2023-01-15T08:46:03.073Z,6.10
2023-01-15T08:47:02.975Z,6.10
2023-01-15T08:48:02.860Z,6.10
2023-01-15T08:49:02.850Z,6.10
2023-01-15T08:50:02.826Z,6.10
2023-01-15T08:51:02.717Z,6.10
2023-01-15T08:52:02.662Z,6.00
2023-01-15T08:53:03.611Z,6.00
2023-01-15T08:54:03.461Z,6.00
2023-01-15T08:55:03.413Z,6.00
2023-01-15T08:56:03.337Z,6.00
2023-01-15T08:57:03.339Z,6.00
2023-01-15T08:58:03.291Z,6.00
2023-01-15T08:59:03.275Z,6.00
2023-01-15T09:00:03.141Z,6.00
2023-01-15T09:01:03.146Z,6.00
2023-01-15T09:02:03.331Z,6.00
2023-01-15T09:03:03.093Z,6.00
2023-01-15T09:04:03.140Z,6.00
2023-01-15T09:05:03.147Z,6.00
2023-01-15T09:06:03.017Z,5.90
2023-01-15T09:07:02.972Z,5.90
2023-01-15T09:08:02.975Z,5.90
2023-01-15T09:09:02.991Z,5.90
2023-01-15T09:10:02.878Z,5.90
2023-01-15T09:11:02.798Z,5.90
2023-01-15T09:12:02.759Z,5.90
2023-01-15T09:13:02.760Z,5.90
2023-01-15T09:14:02.768Z,5.90
2023-01-15T09:15:02.919Z,5.90
2023-01-15T09:16:02.768Z,5.90
2023-01-15T09:17:02.765Z,5.80
2023-01-15T09:18:02.885Z,5.80
2023-01-15T09:19:02.797Z,5.80
2023-01-15T09:20:02.819Z,5.80
2023-01-15T09:21:02.841Z,5.80
2023-01-15T09:22:02.800Z,5.80
2023-01-15T09:23:02.751Z,5.80
2023-01-15T09:24:02.772Z,5.80
2023-01-15T09:25:02.776Z,5.80
2023-01-15T09:26:02.849Z,5.80
2023-01-15T09:27:02.818Z,5.80
2023-01-15T09:28:02.766Z,5.80
2023-01-15T09:29:02.807Z,5.80
2023-01-15T09:30:02.801Z,5.70
2023-01-15T09:31:02.863Z,5.70
2023-01-15T09:32:02.806Z,5.70
2023-01-15T09:33:02.679Z,5.70
2023-01-15T09:34:02.649Z,5.70
2023-01-15T09:35:02.710Z,5.70
2023-01-15T09:36:03.411Z,5.70
2023-01-15T09:37:03.332Z,5.60
2023-01-15T09:38:03.262Z,5.60
2023-01-15T09:39:03.321Z,5.60
2023-01-15T09:40:03.397Z,5.60
2023-01-15T09:41:03.388Z,5.60
2023-01-15T09:42:03.432Z,5.60
2023-01-15T09:43:03.394Z,5.60
2023-01-15T09:44:03.327Z,5.60
2023-01-15T09:45:03.342Z,5.60
2023-01-15T09:46:03.352Z,5.60
2023-01-15T09:47:03.165Z,5.60
2023-01-15T09:48:03.069Z,5.60
2023-01-15T09:49:03.001Z,5.60
2023-01-15T09:50:02.899Z,5.60
2023-01-15T09:51:02.905Z,5.60
2023-01-15T09:52:02.882Z,5.60
2023-01-15T09:53:02.834Z,5.60
2023-01-15T09:54:02.795Z,5.60
2023-01-15T09:55:02.705Z,5.60
2023-01-15T09:56:02.681Z,5.60
2023-01-15T09:57:02.625Z,5.60
2023-01-15T09:58:03.497Z,5.70
2023-01-15T09:59:03.564Z,5.70
2023-01-15T10:00:03.558Z,5.70
2023-01-15T10:01:03.527Z,5.70
2023-01-15T10:02:03.515Z,5.70
2023-01-15T10:03:03.540Z,5.70
2023-01-15T10:04:03.496Z,5.70
2023-01-15T10:05:05.278Z,5.70
2023-01-15T10:06:03.431Z,5.70
2023-01-15T10:07:03.358Z,5.70
2023-01-15T10:08:03.325Z,5.70
2023-01-15T10:09:03.217Z,5.70
2023-01-15T10:10:03.237Z,5.70
2023-01-15T10:11:03.241Z,5.70
2023-01-15T10:12:03.149Z,5.70
2023-01-15T10:13:03.085Z,5.70
2023-01-15T10:14:03.075Z,5.70
2023-01-15T10:15:03.014Z,5.70
2023-01-15T10:16:02.945Z,5.70
2023-01-15T10:17:02.814Z,5.70
2023-01-15T10:18:02.822Z,5.70
2023-01-15T10:19:02.775Z,5.70
2023-01-15T10:20:02.829Z,5.70
2023-01-15T10:21:02.706Z,5.70
2023-01-15T10:22:02.616Z,5.60
2023-01-15T10:23:03.605Z,5.70
2023-01-15T10:24:03.605Z,5.70
2023-01-15T10:25:03.595Z,5.70
2023-01-15T10:26:02.594Z,5.60
2023-01-15T10:27:02.588Z,5.60
2023-01-15T10:28:03.573Z,5.60
2023-01-15T10:29:03.549Z,5.60
2023-01-15T10:30:03.460Z,5.60
2023-01-15T10:31:03.348Z,5.60
2023-01-15T10:32:03.439Z,5.60
2023-01-15T10:33:03.665Z,5.60
2023-01-15T10:34:03.444Z,5.60
2023-01-15T10:35:03.294Z,5.50
2023-01-15T10:36:03.237Z,5.50
2023-01-15T10:37:03.178Z,5.50
2023-01-15T10:38:03.034Z,5.50
2023-01-15T10:39:03.080Z,5.50
2023-01-15T10:40:03.126Z,5.50
2023-01-15T10:41:03.013Z,5.50
2023-01-15T10:42:03.010Z,5.50
2023-01-15T10:43:02.959Z,5.50
2023-01-15T10:44:02.862Z,5.50
2023-01-15T10:45:02.888Z,5.50
2023-01-15T10:46:02.868Z,5.50
2023-01-15T10:47:02.747Z,5.50
2023-01-15T10:48:02.785Z,5.50
2023-01-15T10:49:02.659Z,5.50
2023-01-15T10:50:03.601Z,5.50
2023-01-15T10:51:03.482Z,5.50
2023-01-15T10:52:03.466Z,5.50
2023-01-15T10:53:03.405Z,5.50
2023-01-15T10:54:03.342Z,5.50
2023-01-15T10:55:03.276Z,5.50
2023-01-15T10:56:03.177Z,5.50
2023-01-15T10:57:03.158Z,5.50
2023-01-15T10:58:10.072Z,5.50
2023-01-15T10:59:03.072Z,5.50
2023-01-15T11:00:03.013Z,5.50
2023-01-15T11:01:02.961Z,5.50
2023-01-15T11:02:02.874Z,5.50
2023-01-15T11:03:02.765Z,5.50
2023-01-15T11:04:02.647Z,5.60
2023-01-15T11:05:02.655Z,5.60
2023-01-15T11:06:03.567Z,5.60
2023-01-15T11:07:03.514Z,5.60
2023-01-15T11:08:28.549Z,5.60
2023-01-15T11:09:10.586Z,5.60
2023-01-15T11:10:02.712Z,5.60
2023-01-15T11:11:02.772Z,5.60
2023-01-15T11:12:02.676Z,5.60
2023-01-15T11:13:02.623Z,5.60
2023-01-15T11:14:02.664Z,5.60
2023-01-15T11:15:03.591Z,5.60
2023-01-15T11:16:03.574Z,5.60
2023-01-15T11:17:03.658Z,5.60
2023-01-15T11:18:02.704Z,5.60
2023-01-15T11:19:02.662Z,5.60
2023-01-15T11:20:03.559Z,5.70
2023-01-15T11:21:03.451Z,5.70
2023-01-15T11:22:03.409Z,5.70
2023-01-15T11:23:03.393Z,5.70
2023-01-15T11:24:03.309Z,5.70
2023-01-15T11:25:03.329Z,5.70
2023-01-15T11:26:03.210Z,5.70
2023-01-15T11:27:03.107Z,5.70
2023-01-15T11:28:03.057Z,5.70
2023-01-15T11:29:03.060Z,5.70
2023-01-15T11:30:03.060Z,5.70
2023-01-15T11:31:03.037Z,5.70
2023-01-15T11:32:02.985Z,5.70
2023-01-15T11:33:03.028Z,5.70
2023-01-15T11:34:02.928Z,5.70
2023-01-15T11:35:02.932Z,5.70
2023-01-15T11:36:02.979Z,5.70
2023-01-15T11:37:02.899Z,5.70
2023-01-15T11:38:02.798Z,5.70
2023-01-15T11:39:02.724Z,5.70
2023-01-15T11:40:02.688Z,5.70
2023-01-15T11:41:02.589Z,5.60
2023-01-15T11:42:03.540Z,5.60
2023-01-15T11:43:03.465Z,5.60
2023-01-15T11:44:03.383Z,5.60
2023-01-15T11:45:03.288Z,5.60
2023-01-15T11:46:03.347Z,5.60
2023-01-15T11:47:03.275Z,5.50
2023-01-15T11:48:03.202Z,5.50
2023-01-15T11:49:03.256Z,5.50
2023-01-15T11:50:03.212Z,5.50
2023-01-15T11:51:03.209Z,5.50
2023-01-15T11:52:03.127Z,5.50
2023-01-15T11:53:03.106Z,5.50
2023-01-15T11:54:02.946Z,5.50
2023-01-15T11:55:03.037Z,5.50
2023-01-15T11:56:02.918Z,5.60
2023-01-15T11:57:02.929Z,5.50
2023-01-15T11:58:02.887Z,5.50
2023-01-15T11:59:02.941Z,5.50
2023-01-15T12:00:02.901Z,5.50
2023-01-15T12:01:02.837Z,5.50
2023-01-15T12:02:02.716Z,5.50
2023-01-15T12:03:02.568Z,5.50
2023-01-15T12:04:02.741Z,5.50
2023-01-15T12:05:03.622Z,5.50
2023-01-15T12:06:02.688Z,5.50
2023-01-15T12:07:02.700Z,5.50
2023-01-15T12:08:02.612Z,5.50
2023-01-15T12:09:03.590Z,5.50
2023-01-15T12:10:03.538Z,5.50
2023-01-15T12:11:14.174Z,5.60
2023-01-15T12:12:03.330Z,5.50
2023-01-15T12:13:03.354Z,5.60
2023-01-15T12:14:03.196Z,5.60
2023-01-15T12:15:03.232Z,5.60
2023-01-15T12:16:03.293Z,5.60
2023-01-15T12:17:03.205Z,5.60
2023-01-15T12:18:03.174Z,5.60
2023-01-15T12:19:03.047Z,5.60
2023-01-15T12:20:03.083Z,5.60
2023-01-15T12:21:02.992Z,5.60
2023-01-15T12:22:03.071Z,5.60
2023-01-15T12:23:03.012Z,5.60
2023-01-15T12:24:02.914Z,5.60
2023-01-15T12:25:02.840Z,5.60
2023-01-15T12:26:02.809Z,5.60
2023-01-15T12:27:02.715Z,5.60
2023-01-15T12:28:02.748Z,5.60
2023-01-15T12:29:02.658Z,5.60
2023-01-15T12:30:02.804Z,5.60
2023-01-15T12:31:02.834Z,5.60
2023-01-15T12:32:02.683Z,5.50
2023-01-15T12:33:02.911Z,5.50
2023-01-15T12:34:02.742Z,5.50
2023-01-15T12:35:02.742Z,5.50
2023-01-15T12:36:02.679Z,5.50
2023-01-15T12:37:02.749Z,5.50
2023-01-15T12:38:02.627Z,5.50
2023-01-15T12:39:03.639Z,5.50
2023-01-15T12:40:03.551Z,5.50
2023-01-15T12:41:03.573Z,5.50
2023-01-15T12:42:03.481Z,5.50
2023-01-15T12:43:03.417Z,5.50
2023-01-15T12:44:03.403Z,5.50
2023-01-15T12:45:03.480Z,5.50
2023-01-15T12:46:03.508Z,5.50
2023-01-15T12:47:03.426Z,5.40
2023-01-15T12:48:03.576Z,5.50
2023-01-15T12:49:03.494Z,5.40
2023-01-15T12:50:03.355Z,5.40
2023-01-15T12:51:03.280Z,5.50
2023-01-15T12:52:03.308Z,5.50
2023-01-15T12:53:03.299Z,5.50
2023-01-15T12:54:03.114Z,5.50
2023-01-15T12:55:03.147Z,5.50
2023-01-15T12:56:03.127Z,5.50
2023-01-15T12:57:03.110Z,5.50
2023-01-15T12:58:03.152Z,5.50
2023-01-15T12:59:03.030Z,5.40
2023-01-15T13:00:03.075Z,5.40
2023-01-15T13:01:03.179Z,5.40
2023-01-15T13:02:03.214Z,5.40
2023-01-15T13:03:03.068Z,5.40
2023-01-15T13:04:02.957Z,5.40
2023-01-15T13:05:03.037Z,5.40
2023-01-15T13:06:03.009Z,5.40
2023-01-15T13:07:02.895Z,5.40
2023-01-15T13:08:02.852Z,5.40
2023-01-15T13:09:02.794Z,5.40
2023-01-15T13:10:02.788Z,5.40
2023-01-15T13:11:02.728Z,5.40
2023-01-15T13:12:02.643Z,5.40
2023-01-15T13:13:02.635Z,5.40
2023-01-15T13:14:03.500Z,5.40
2023-01-15T13:15:03.483Z,5.40
2023-01-15T13:16:03.651Z,5.40
2023-01-15T13:17:03.550Z,5.40
2023-01-15T13:18:03.360Z,5.40